createdAt,value
2022-11-17T00:01:08.732Z,8.23
2022-11-17T00:03:39.812Z,8.30
2022-11-17T00:06:10.114Z,7.97
2022-11-17T00:08:40.970Z,9.10
2022-11-17T00:11:14.106Z,7.87
2022-11-17T00:13:57.256Z,8.50
2022-11-17T00:16:27.792Z,8.30
2022-11-17T00:19:11.026Z,8.40
2022-11-17T00:21:41.297Z,8.97
2022-11-17T00:24:11.999Z,8.00
2022-11-17T00:27:01.629Z,8.93
2022-11-17T00:29:32.870Z,9.20
2022-11-17T00:32:15.643Z,9.30
2022-11-17T00:34:46.334Z,8.70
2022-11-17T00:37:18.475Z,8.07
2022-11-17T00:39:49.195Z,9.10
2022-11-17T00:42:22.083Z,8.17
2022-11-17T00:44:52.828Z,8.63
2022-11-17T00:47:22.828Z,8.67
2022-11-17T00:49:53.152Z,8.60
2022-11-17T00:52:23.194Z,8.83
2022-11-17T00:54:53.540Z,8.97
2022-11-17T00:57:26.168Z,7.73
2022-11-17T00:59:56.530Z,8.10
2022-11-17T01:02:26.571Z,8.67
2022-11-17T01:04:56.959Z,8.67
2022-11-17T01:07:27.111Z,8.67
2022-11-17T01:09:57.534Z,8.80
2022-11-17T01:12:30.140Z,7.57
2022-11-17T01:15:00.512Z,7.80
2022-11-17T01:17:30.598Z,8.63
2022-11-17T01:20:00.956Z,7.87
2022-11-17T01:22:30.994Z,7.90
2022-11-17T01:25:01.368Z,8.53
2022-11-17T01:27:33.936Z,8.33
2022-11-17T01:30:04.289Z,7.77
2022-11-17T01:32:34.325Z,7.83
2022-11-17T01:35:04.686Z,8.13
2022-11-17T01:37:34.659Z,8.40
2022-11-17T01:40:05.103Z,7.77
2022-11-17T01:42:37.828Z,7.87
2022-11-17T01:45:22.288Z,8.30
2022-11-17T01:47:55.196Z,8.37
2022-11-17T01:50:32.736Z,7.97
2022-11-17T01:53:07.337Z,8.77
2022-11-17T01:55:41.203Z,7.80
2022-11-17T01:58:17.325Z,7.87
2022-11-17T02:00:47.858Z,7.93
2022-11-17T02:03:18.050Z,8.27
2022-11-17T02:05:54.665Z,7.80
2022-11-17T02:08:29.042Z,7.57
2022-11-17T02:11:00.285Z,7.33
2022-11-17T02:13:33.326Z,7.50
2022-11-17T02:16:03.857Z,7.60
2022-11-17T02:18:33.982Z,7.67
2022-11-17T02:21:25.544Z,7.33
2022-11-17T02:24:25.951Z,7.33
2022-11-17T02:27:28.063Z,7.00
2022-11-17T02:30:05.347Z,6.70
2022-11-17T02:32:48.693Z,7.67
2022-11-17T02:35:26.376Z,7.00
2022-11-17T02:38:08.815Z,7.20
2022-11-17T02:40:46.453Z,6.90
2022-11-17T02:43:33.637Z,6.47
2022-11-17T02:46:10.505Z,7.43
2022-11-17T02:48:44.515Z,7.40
2022-11-17T02:51:23.345Z,7.00
2022-11-17T02:53:56.046Z,7.43
2022-11-17T02:56:26.338Z,7.53
2022-11-17T02:59:00.864Z,7.27
2022-11-17T03:01:59.703Z,8.00
2022-11-17T03:04:34.361Z,8.57
2022-11-17T03:07:18.886Z,7.73
2022-11-17T03:09:59.114Z,8.30
2022-11-17T03:12:38.328Z,8.33
2022-11-17T03:15:17.466Z,8.67
2022-11-17T03:17:59.232Z,8.37
2022-11-17T03:20:36.095Z,7.80
2022-11-17T03:23:11.785Z,8.60
2022-11-17T03:25:48.359Z,7.97
2022-11-17T03:28:20.408Z,8.00
2022-11-17T03:30:53.079Z,8.50
2022-11-17T03:33:27.581Z,7.57
2022-11-17T03:36:03.826Z,9.20
2022-11-17T03:38:41.245Z,8.47
2022-11-17T03:41:15.166Z,8.43
2022-11-17T03:43:49.631Z,8.30
2022-11-17T03:46:24.846Z,9.23
2022-11-17T03:49:05.374Z,8.10
2022-11-17T03:51:36.011Z,8.83
2022-11-17T03:54:06.755Z,9.30
2022-11-17T03:56:43.161Z,8.53
2022-11-17T03:59:18.516Z,9.57
2022-11-17T04:01:49.200Z,8.50
2022-11-17T04:04:23.891Z,8.97
2022-11-17T04:06:55.141Z,8.80
2022-11-17T04:09:25.464Z,8.97
2022-11-17T04:12:08.439Z,8.67
2022-11-17T04:14:51.097Z,9.93
2022-11-17T04:17:21.817Z,11.43
2022-11-17T04:19:54.728Z,10.93
2022-11-17T04:22:25.342Z,9.90
2022-11-17T04:24:55.566Z,9.07
2022-11-17T04:27:38.586Z,9.50
2022-11-17T04:30:09.774Z,9.33
2022-11-17T04:32:40.354Z,10.30
2022-11-17T04:35:13.365Z,8.90
2022-11-17T04:37:43.953Z,9.80
2022-11-17T04:40:14.614Z,9.87
2022-11-17T04:42:42.606Z,9.07
2022-11-17T04:45:13.166Z,10.07
2022-11-17T04:47:43.707Z,9.20
2022-11-17T04:50:16.681Z,10.17
2022-11-17T04:52:47.206Z,9.67
2022-11-17T04:55:17.514Z,9.20
2022-11-17T04:57:48.070Z,10.07
2022-11-17T05:00:20.020Z,10.03
2022-11-17T05:02:50.290Z,10.00
2022-11-17T05:05:22.849Z,10.43
2022-11-17T05:07:53.138Z,10.07
2022-11-17T05:10:43.410Z,10.67
2022-11-17T05:13:25.039Z,9.97
2022-11-17T05:16:08.301Z,10.40
2022-11-17T05:18:38.547Z,10.23
2022-11-17T05:21:13.199Z,10.10
2022-11-17T05:23:55.741Z,10.10
2022-11-17T05:26:28.322Z,10.60
2022-11-17T05:29:00.284Z,10.40
2022-11-17T05:31:31.742Z,10.97
2022-11-17T05:34:03.029Z,10.47
2022-11-17T05:36:35.893Z,11.27
2022-11-17T05:39:06.786Z,10.87
2022-11-17T05:41:37.599Z,11.23
2022-11-17T05:44:08.208Z,10.60
2022-11-17T05:46:38.169Z,10.13
2022-11-17T05:49:08.540Z,11.57
2022-11-17T05:51:41.356Z,10.57
2022-11-17T05:54:11.829Z,10.77
2022-11-17T05:56:45.123Z,10.43
2022-11-17T05:59:27.747Z,10.73
2022-11-17T06:02:03.578Z,10.33
2022-11-17T06:04:34.371Z,7.80
2022-11-17T06:07:07.373Z,10.07
2022-11-17T06:09:39.590Z,10.00
2022-11-17T06:12:12.016Z,9.60
2022-11-17T06:14:42.116Z,10.07
2022-11-17T06:17:22.151Z,9.67
2022-11-17T06:19:56.328Z,9.63
2022-11-17T06:22:30.367Z,9.73
2022-11-17T06:25:01.614Z,9.50
2022-11-17T06:27:34.838Z,9.37
2022-11-17T06:30:06.660Z,10.57
2022-11-17T06:32:40.245Z,9.73
2022-11-17T06:35:13.015Z,8.90
2022-11-17T06:37:46.143Z,8.80
2022-11-17T06:40:18.719Z,8.83
2022-11-17T06:43:02.894Z,8.80
2022-11-17T06:45:35.821Z,7.97
2022-11-17T06:48:06.727Z,9.07
2022-11-17T06:50:37.699Z,8.90
2022-11-17T06:53:12.934Z,9.40
2022-11-17T06:55:42.930Z,9.50
2022-11-17T06:58:14.303Z,9.23
2022-11-17T07:00:44.825Z,8.63
2022-11-17T07:03:15.417Z,9.20
2022-11-17T07:05:48.387Z,9.00
2022-11-17T07:08:22.665Z,9.20
2022-11-17T07:10:54.799Z,9.63
2022-11-17T07:13:26.666Z,8.97
2022-11-17T07:15:56.988Z,9.10
2022-11-17T07:18:27.548Z,9.43
2022-11-17T07:20:57.496Z,8.67
2022-11-17T07:23:30.406Z,8.73
2022-11-17T07:26:00.581Z,9.53
2022-11-17T07:28:32.171Z,9.60
2022-11-17T07:31:05.394Z,8.90
2022-11-17T07:33:36.395Z,9.60
2022-11-17T07:36:07.648Z,8.70
2022-11-17T07:38:41.687Z,8.37
2022-11-17T07:41:15.036Z,8.77
2022-11-17T07:43:45.404Z,9.63
2022-11-17T07:46:17.384Z,8.87
2022-11-17T07:48:47.925Z,8.23
2022-11-17T07:51:17.958Z,9.20
2022-11-17T07:53:50.844Z,8.67
2022-11-17T07:56:20.807Z,7.73
2022-11-17T07:58:51.223Z,8.67
2022-11-17T08:01:21.410Z,9.73
2022-11-17T08:03:51.792Z,8.07
2022-11-17T08:06:22.752Z,9.17
2022-11-17T08:08:55.618Z,9.33
2022-11-17T08:11:25.829Z,8.27
2022-11-17T08:13:57.095Z,8.67
2022-11-17T08:16:30.650Z,8.70
2022-11-17T08:19:01.021Z,8.97
2022-11-17T08:21:31.013Z,9.53
2022-11-17T08:24:04.179Z,7.63
2022-11-17T08:26:34.204Z,8.63
2022-11-17T08:29:04.569Z,9.50
2022-11-17T08:31:34.556Z,8.27
2022-11-17T08:34:04.813Z,9.03
2022-11-17T08:36:34.760Z,8.67
2022-11-17T08:39:07.821Z,8.53
2022-11-17T08:41:37.829Z,9.13
2022-11-17T08:44:08.579Z,9.70
2022-11-17T08:46:38.522Z,9.53
2022-11-17T08:49:08.798Z,8.67
2022-11-17T08:51:38.957Z,9.80
2022-11-17T08:54:14.258Z,9.53
2022-11-17T08:56:46.108Z,10.73
2022-11-17T08:59:16.810Z,10.43
2022-11-17T09:01:46.892Z,10.03
2022-11-17T09:04:18.007Z,9.10
2022-11-17T09:06:48.432Z,10.10
2022-11-17T09:09:22.015Z,11.13
2022-11-17T09:11:52.401Z,8.13
2022-11-17T09:14:22.710Z,10.40
2022-11-17T09:16:54.268Z,11.27
2022-11-17T09:19:24.709Z,9.90
2022-11-17T09:21:54.723Z,11.37
2022-11-17T09:24:27.994Z,9.63
2022-11-17T09:26:58.625Z,12.37
2022-11-17T09:29:28.936Z,11.70
2022-11-17T09:31:59.321Z,12.40
2022-11-17T09:34:29.645Z,11.27
2022-11-17T09:36:59.648Z,12.17
2022-11-17T09:39:32.506Z,12.33
2022-11-17T09:42:02.614Z,11.53
2022-11-17T09:44:40.296Z,13.73
2022-11-17T09:47:30.121Z,13.20
2022-11-17T09:50:17.183Z,12.90
2022-11-17T09:53:07.949Z,12.90
2022-11-17T09:55:43.044Z,13.30
2022-11-17T09:58:20.655Z,12.80
2022-11-17T10:00:53.040Z,12.87
2022-11-17T10:03:25.385Z,13.87
2022-11-17T10:05:56.777Z,13.40
2022-11-17T10:08:32.399Z,13.87
2022-11-17T10:11:25.662Z,13.43
2022-11-17T10:13:55.791Z,14.17
2022-11-17T10:16:32.437Z,12.87
2022-11-17T10:19:05.323Z,13.27
2022-11-17T10:21:35.624Z,13.00
2022-11-17T10:24:05.873Z,13.73
2022-11-17T10:26:48.254Z,13.50
2022-11-17T10:29:25.179Z,14.10
2022-11-17T10:31:55.476Z,12.50
2022-11-17T10:34:41.132Z,12.23
2022-11-17T10:37:28.152Z,13.23
2022-11-17T10:40:17.340Z,13.60
2022-11-17T10:43:02.674Z,14.20
2022-11-17T10:45:32.975Z,12.23
2022-11-17T10:48:21.615Z,12.67
2022-11-17T10:50:56.828Z,11.87
2022-11-17T10:53:34.974Z,12.37
2022-11-17T10:56:15.919Z,11.97
2022-11-17T10:59:04.964Z,10.43
2022-11-17T11:01:37.754Z,11.87
2022-11-17T11:04:10.525Z,11.07
2022-11-17T11:06:40.588Z,11.47
2022-11-17T11:09:19.111Z,11.87
2022-11-17T11:11:52.550Z,12.17
2022-11-17T11:14:51.409Z,11.93
2022-11-17T11:17:22.667Z,12.33
2022-11-17T11:19:55.274Z,11.77
2022-11-17T11:22:34.480Z,11.90
2022-11-17T11:25:17.446Z,12.17
2022-11-17T11:27:58.971Z,11.27
2022-11-17T11:30:40.950Z,10.93
2022-11-17T11:33:25.886Z,11.40
2022-11-17T11:36:07.635Z,11.00
2022-11-17T11:38:55.575Z,11.30
2022-11-17T11:41:41.989Z,10.90
2022-11-17T11:44:27.783Z,11.10
2022-11-17T11:47:08.969Z,10.73
2022-11-17T11:49:45.108Z,11.63
2022-11-17T11:52:21.951Z,10.63
2022-11-17T11:54:57.181Z,10.03
2022-11-17T11:57:32.190Z,10.93
2022-11-17T12:00:05.258Z,9.97
2022-11-17T12:02:46.687Z,10.90
2022-11-17T12:05:27.319Z,10.50
2022-11-17T12:08:10.384Z,10.90
2022-11-17T12:10:48.150Z,10.30
2022-11-17T12:13:21.027Z,10.93
2022-11-17T12:15:52.454Z,9.80
2022-11-17T12:18:34.903Z,10.13
2022-11-17T12:21:08.153Z,9.97
2022-11-17T12:24:18.694Z,10.10
2022-11-17T12:26:49.117Z,9.80
2022-11-17T12:29:33.290Z,9.37
2022-11-17T12:32:05.205Z,9.13
2022-11-17T12:34:39.545Z,9.40
2022-11-17T12:37:31.059Z,9.30
2022-11-17T12:40:10.538Z,9.50
2022-11-17T12:43:18.857Z,9.63
2022-11-17T12:46:15.467Z,10.87
2022-11-17T12:48:55.763Z,9.40
2022-11-17T12:51:35.325Z,9.23
2022-11-17T12:54:22.335Z,9.63
2022-11-17T12:57:00.867Z,9.37
2022-11-17T13:00:07.762Z,8.53
2022-11-17T13:03:02.998Z,9.33
2022-11-17T13:05:33.859Z,9.40
2022-11-17T13:08:30.648Z,9.10
2022-11-17T13:11:07.994Z,8.20
2022-11-17T13:13:42.571Z,8.27
2022-11-17T13:16:22.097Z,9.20
2022-11-17T13:18:53.169Z,9.93
2022-11-17T13:21:32.389Z,9.93
2022-11-17T13:24:05.075Z,8.83
2022-11-17T13:26:38.267Z,9.40
2022-11-17T13:29:10.378Z,8.87
2022-11-17T13:31:41.055Z,8.63
2022-11-17T13:34:21.273Z,8.47
2022-11-17T13:37:00.065Z,7.90
2022-11-17T13:39:32.935Z,9.00
2022-11-17T13:42:04.956Z,8.80
2022-11-17T13:44:35.923Z,8.50
2022-11-17T13:47:21.274Z,8.10
2022-11-17T13:49:51.427Z,9.37
2022-11-17T13:52:40.717Z,9.07
2022-11-17T13:55:22.568Z,9.13
2022-11-17T13:57:58.112Z,9.37
2022-11-17T14:00:28.339Z,9.40
2022-11-17T14:02:59.826Z,9.00
2022-11-17T14:05:31.346Z,9.87
2022-11-17T14:08:14.899Z,9.77
2022-11-17T14:10:48.284Z,9.07
2022-11-17T14:17:24.765Z,9.77
2022-11-17T14:19:55.106Z,10.23
2022-11-17T14:22:31.760Z,9.20
2022-11-17T14:25:02.588Z,9.90
2022-11-17T14:27:49.172Z,9.23
2022-11-17T14:30:22.580Z,8.60
2022-11-17T14:32:53.083Z,9.67
2022-11-17T14:35:23.447Z,9.37
2022-11-17T14:37:53.662Z,9.20
2022-11-17T14:40:24.536Z,8.97
2022-11-17T14:42:57.326Z,9.10
2022-11-17T14:45:27.624Z,9.30
2022-11-17T14:47:57.699Z,8.60
2022-11-17T14:50:28.362Z,9.03
2022-11-17T14:52:58.484Z,9.10
2022-11-17T14:55:30.272Z,8.67
2022-11-17T14:58:02.846Z,9.20
2022-11-17T15:00:33.182Z,8.90
2022-11-17T15:03:03.169Z,9.27
2022-11-17T15:05:33.621Z,9.63
2022-11-17T15:08:03.828Z,8.87
2022-11-17T15:10:34.243Z,9.63
2022-11-17T15:13:06.965Z,9.40
2022-11-17T15:15:39.274Z,10.00
2022-11-17T15:18:09.366Z,9.37
2022-11-17T15:20:39.821Z,9.90
2022-11-17T15:23:10.259Z,10.07
2022-11-17T15:25:41.123Z,9.27
2022-11-17T15:28:18.904Z,9.80
2022-11-17T15:30:52.329Z,10.00
2022-11-17T15:33:22.378Z,11.10
2022-11-17T15:36:03.170Z,10.60
2022-11-17T15:38:34.161Z,10.93
2022-11-17T15:41:04.799Z,11.47
2022-11-17T15:43:40.543Z,11.90
2022-11-17T15:46:12.513Z,11.47
2022-11-17T15:48:44.742Z,10.13
2022-11-17T15:51:17.093Z,11.77
2022-11-17T15:53:48.387Z,12.07
2022-11-17T15:56:20.579Z,12.70
2022-11-17T15:58:58.195Z,12.73
2022-11-17T16:01:30.046Z,13.10
2022-11-17T16:04:01.461Z,13.20
2022-11-17T16:06:32.749Z,12.27
2022-11-17T16:09:03.031Z,12.73
2022-11-17T16:11:33.507Z,12.97
2022-11-17T16:14:07.334Z,13.27
2022-11-17T16:16:40.262Z,13.17
2022-11-17T16:19:10.577Z,12.40
2022-11-17T16:21:40.863Z,13.07
2022-11-17T16:24:13.837Z,13.67
2022-11-17T16:26:44.814Z,13.03
2022-11-17T16:29:18.054Z,11.77
2022-11-17T16:31:48.522Z,13.73
2022-11-17T16:34:19.223Z,22.43
2022-11-17T16:36:49.491Z,12.80
2022-11-17T16:39:20.281Z,12.77
2022-11-17T16:41:52.654Z,13.17
2022-11-17T16:44:25.272Z,12.80
2022-11-17T16:46:58.533Z,12.50
2022-11-17T16:49:30.976Z,12.77
2022-11-17T16:52:01.264Z,12.43
2022-11-17T16:54:31.586Z,12.80
2022-11-17T16:57:01.912Z,12.67
2022-11-17T16:59:34.489Z,12.37
2022-11-17T17:02:04.890Z,13.30
2022-11-17T17:04:35.291Z,13.20
2022-11-17T17:07:05.640Z,13.03
2022-11-17T17:09:37.442Z,12.43
2022-11-17T17:12:08.888Z,13.43
2022-11-17T17:14:41.481Z,12.80
2022-11-17T17:17:11.768Z,11.90
2022-11-17T17:19:41.716Z,12.30
2022-11-17T17:22:11.953Z,13.20
2022-11-17T17:24:41.892Z,13.87
2022-11-17T17:27:12.378Z,12.77
2022-11-17T17:29:45.037Z,13.90
2022-11-17T17:32:15.562Z,13.43
2022-11-17T17:34:45.526Z,12.60
2022-11-17T17:37:15.842Z,12.80
2022-11-17T17:39:45.818Z,12.73
2022-11-17T17:42:16.272Z,13.83
2022-11-17T17:44:48.848Z,13.27
2022-11-17T17:47:19.254Z,13.97
2022-11-17T17:49:49.224Z,13.77
2022-11-17T17:52:19.833Z,13.20
2022-11-17T17:54:50.088Z,14.10
2022-11-17T17:57:20.687Z,15.00
2022-11-17T17:59:53.574Z,13.90
2022-11-17T18:02:24.166Z,17.07
2022-11-17T18:04:54.351Z,15.83
2022-11-17T18:07:24.747Z,14.30
2022-11-17T18:09:54.917Z,14.43
2022-11-17T18:12:25.399Z,22.70
2022-11-17T18:14:58.008Z,14.97
2022-11-17T18:17:28.302Z,15.40
2022-11-17T18:19:58.424Z,15.53
2022-11-17T18:22:28.882Z,17.03
2022-11-17T18:24:58.864Z,15.60
2022-11-17T18:27:29.238Z,15.27
2022-11-17T18:30:01.795Z,16.17
2022-11-17T18:32:32.153Z,15.03
2022-11-17T18:35:02.188Z,17.80
2022-11-17T18:37:33.015Z,17.37
2022-11-17T18:40:03.921Z,17.43
2022-11-17T18:42:35.163Z,17.63
2022-11-17T18:45:16.154Z,16.30
2022-11-17T18:47:49.007Z,16.73
2022-11-17T18:50:19.306Z,16.43
2022-11-17T18:52:49.886Z,17.17
2022-11-17T18:55:19.933Z,16.80
2022-11-17T18:57:50.241Z,15.87
2022-11-17T19:00:26.545Z,17.47
2022-11-17T19:02:57.109Z,16.27
2022-11-17T19:05:27.046Z,14.77
2022-11-17T19:07:57.352Z,16.20
2022-11-17T19:10:27.316Z,17.47
2022-11-17T19:12:57.658Z,13.27
2022-11-17T19:15:30.434Z,18.70
2022-11-17T19:18:00.936Z,17.23
2022-11-17T19:20:31.067Z,16.23
2022-11-17T19:23:01.622Z,14.93
2022-11-17T19:25:32.059Z,15.33
2022-11-17T19:28:02.822Z,17.13
2022-11-17T19:30:35.520Z,16.87
2022-11-17T19:33:06.817Z,16.40
2022-11-17T19:35:44.003Z,16.90
2022-11-17T19:38:14.787Z,18.40
2022-11-17T19:40:45.052Z,16.37
2022-11-17T19:43:17.956Z,16.33
2022-11-17T19:45:50.699Z,17.67
2022-11-17T19:48:21.181Z,17.40
2022-11-17T19:50:55.647Z,16.87
2022-11-17T19:53:49.481Z,17.33
2022-11-17T19:56:24.500Z,16.60
2022-11-17T19:58:55.947Z,17.43
2022-11-17T20:01:30.487Z,17.27
2022-11-17T20:04:03.228Z,16.60
2022-11-17T20:06:37.902Z,18.53
2022-11-17T20:09:10.926Z,17.63
2022-11-17T20:11:42.196Z,18.27
2022-11-17T20:14:14.525Z,21.80
2022-11-17T20:16:49.711Z,18.73
2022-11-17T20:19:20.368Z,18.77
2022-11-17T20:21:50.742Z,18.20
2022-11-17T20:24:21.579Z,16.50
2022-11-17T20:26:51.876Z,18.97
2022-11-17T20:29:24.433Z,18.40
2022-11-17T20:31:57.506Z,18.37
2022-11-17T20:34:28.407Z,18.67
2022-11-17T20:37:01.603Z,19.30
2022-11-17T20:39:32.191Z,18.63
2022-11-17T20:42:02.418Z,18.00
2022-11-17T20:44:32.918Z,19.40
2022-11-17T20:47:05.479Z,19.47
2022-11-17T20:49:36.699Z,18.90
2022-11-17T20:52:12.089Z,19.17
2022-11-17T20:54:45.361Z,18.73
2022-11-17T20:57:15.787Z,18.77
2022-11-17T20:59:46.595Z,18.37
2022-11-17T21:02:19.240Z,17.63
2022-11-17T21:04:49.671Z,19.37
2022-11-17T21:07:19.747Z,19.33
2022-11-17T21:09:50.128Z,18.97
2022-11-17T21:12:20.515Z,18.37
2022-11-17T21:14:51.030Z,20.47
2022-11-17T21:17:36.236Z,18.43
2022-11-17T21:20:07.591Z,19.67
2022-11-17T21:22:37.768Z,18.83
2022-11-17T21:25:09.570Z,19.10
2022-11-17T21:27:39.876Z,20.47
2022-11-17T21:30:12.326Z,19.17
2022-11-17T21:32:45.439Z,21.03
2022-11-17T21:35:15.935Z,18.13
2022-11-17T21:37:46.019Z,17.50
2022-11-17T21:40:16.980Z,18.60
2022-11-17T21:42:47.294Z,17.80
2022-11-17T21:45:18.094Z,18.80
2022-11-17T21:47:55.202Z,18.83
2022-11-17T21:50:28.728Z,18.23
2022-11-17T21:52:58.967Z,18.30
2022-11-17T21:55:30.030Z,18.23
2022-11-17T21:58:00.088Z,18.13
2022-11-17T22:00:30.976Z,18.53
2022-11-17T22:03:03.772Z,17.83
2022-11-17T22:05:34.713Z,18.63
2022-11-17T22:08:04.920Z,18.00
2022-11-17T22:10:35.346Z,18.23
2022-11-17T22:13:08.256Z,19.10
2022-11-17T22:15:38.847Z,19.00
2022-11-17T22:18:11.679Z,18.27
2022-11-17T22:20:42.721Z,19.50
2022-11-17T22:23:13.330Z,18.10
2022-11-17T22:25:45.771Z,17.60
2022-11-17T22:28:16.720Z,18.40
2022-11-17T22:30:47.336Z,17.83
2022-11-17T22:33:20.214Z,18.80
2022-11-17T22:35:50.872Z,18.40
2022-11-17T22:38:21.415Z,18.00
2022-11-17T22:40:51.954Z,18.10
2022-11-17T22:43:21.919Z,19.60
2022-11-17T22:45:52.353Z,18.83
2022-11-17T22:48:25.372Z,18.73
2022-11-17T22:50:55.860Z,20.67
2022-11-17T22:53:26.102Z,18.07
2022-11-17T22:55:57.253Z,17.70
2022-11-17T22:58:27.150Z,19.07
2022-11-17T23:00:57.469Z,19.17
2022-11-17T23:03:30.099Z,36.63
2022-11-17T23:06:03.877Z,34.60
2022-11-17T23:08:34.620Z,23.40
2022-11-17T23:13:56.156Z,20.20
2022-11-17T23:16:26.826Z,21.20
2022-11-17T23:19:00.646Z,20.50
2022-11-17T23:21:31.218Z,20.47
2022-11-17T23:24:01.346Z,20.80
2022-11-17T23:26:31.763Z,19.93
2022-11-17T23:29:01.796Z,18.23
2022-11-17T23:31:32.144Z,21.73
2022-11-17T23:34:04.820Z,21.07
2022-11-17T23:36:35.263Z,20.97
2022-11-17T23:39:05.383Z,22.17
2022-11-17T23:41:35.762Z,22.10
2022-11-17T23:44:06.419Z,21.57
2022-11-17T23:46:36.841Z,22.60
2022-11-17T23:49:09.627Z,22.63
2022-11-17T23:51:40.068Z,21.70
2022-11-17T23:54:10.319Z,22.83
2022-11-17T23:56:40.691Z,21.50
2022-11-17T23:59:10.874Z,22.40
